sensor_id;sensor_type;location;lat;lon;timestamp;temperature;humidity
7936;DHT22;4013;49.744;8.118;2023-04-16T00:00:09;8.60;99.90
7936;DHT22;4013;49.744;8.118;2023-04-16T00:02:36;8.60;99.90
7936;DHT22;4013;49.744;8.118;2023-04-16T00:05:03;8.60;99.90
7936;DHT22;4013;49.744;8.118;2023-04-16T00:07:30;8.50;99.90
7936;DHT22;4013;49.744;8.118;2023-04-16T00:09:59;8.50;99.90
7936;DHT22;4013;49.744;8.118;2023-04-16T00:12:26;8.50;99.90
7936;DHT22;4013;49.744;8.118;2023-04-16T00:14:52;8.40;99.90
7936;DHT22;4013;49.744;8.118;2023-04-16T00:17:19;8.50;99.90
7936;DHT22;4013;49.744;8.118;2023-04-16T00:19:46;8.40;99.90
7936;DHT22;4013;49.744;8.118;2023-04-16T00:22:13;8.40;99.90
7936;DHT22;4013;49.744;8.118;2023-04-16T00:24:40;8.40;99.90
7936;DHT22;4013;49.744;8.118;2023-04-16T00:27:09;8.40;99.90
7936;DHT22;4013;49.744;8.118;2023-04-16T00:29:35;8.40;99.90
7936;DHT22;4013;49.744;8.118;2023-04-16T00:32:02;8.40;99.90
7936;DHT22;4013;49.744;8.118;2023-04-16T00:34:30;8.40;99.90
7936;DHT22;4013;49.744;8.118;2023-04-16T00:36:57;8.40;99.90
7936;DHT22;4013;49.744;8.118;2023-04-16T00:39:24;8.30;99.90
7936;DHT22;4013;49.744;8.118;2023-04-16T00:41:51;8.40;99.90
7936;DHT22;4013;49.744;8.118;2023-04-16T00:44:19;8.40;99.90
7936;DHT22;4013;49.744;8.118;2023-04-16T00:46:46;8.40;99.90
7936;DHT22;4013;49.744;8.118;2023-04-16T00:49:13;8.40;99.90
7936;DHT22;4013;49.744;8.118;2023-04-16T00:51:40;8.40;99.90
7936;DHT22;4013;49.744;8.118;2023-04-16T00:54:08;8.30;99.90
7936;DHT22;4013;49.744;8.118;2023-04-16T00:56:35;8.30;99.90
7936;DHT22;4013;49.744;8.118;2023-04-16T00:59:02;8.30;99.90
7936;DHT22;4013;49.744;8.118;2023-04-16T01:01:30;8.30;99.90
7936;DHT22;4013;49.744;8.118;2023-04-16T01:03:58;8.30;99.90
7936;DHT22;4013;49.744;8.118;2023-04-16T01:06:25;8.30;99.90
7936;DHT22;4013;49.744;8.118;2023-04-16T01:08:52;8.30;99.90
7936;DHT22;4013;49.744;8.118;2023-04-16T01:11:19;8.30;99.90
7936;DHT22;4013;49.744;8.118;2023-04-16T01:13:46;8.30;99.90
7936;DHT22;4013;49.744;8.118;2023-04-16T01:16:13;8.20;99.90
7936;DHT22;4013;49.744;8.118;2023-04-16T01:18:41;8.20;99.90
7936;DHT22;4013;49.744;8.118;2023-04-16T01:21:10;8.20;99.90
7936;DHT22;4013;49.744;8.118;2023-04-16T01:23:37;8.20;99.90
7936;DHT22;4013;49.744;8.118;2023-04-16T01:26:04;8.20;99.90
7936;DHT22;4013;49.744;8.118;2023-04-16T01:28:31;8.20;99.90
7936;DHT22;4013;49.744;8.118;2023-04-16T01:30:58;8.20;99.90
7936;DHT22;4013;49.744;8.118;2023-04-16T01:33:25;8.10;99.90
7936;DHT22;4013;49.744;8.118;2023-04-16T01:35:52;8.10;99.90
7936;DHT22;4013;49.744;8.118;2023-04-16T01:38:20;8.10;99.90
7936;DHT22;4013;49.744;8.118;2023-04-16T01:40:47;8.10;99.90
7936;DHT22;4013;49.744;8.118;2023-04-16T01:43:14;8.10;99.90
7936;DHT22;4013;49.744;8.118;2023-04-16T01:45:41;8.10;99.90
7936;DHT22;4013;49.744;8.118;2023-04-16T01:48:08;8.10;99.90
7936;DHT22;4013;49.744;8.118;2023-04-16T01:50:35;8.10;99.90
7936;DHT22;4013;49.744;8.118;2023-04-16T01:53:03;8.10;99.90
7936;DHT22;4013;49.744;8.118;2023-04-16T01:55:32;8.10;99.90
7936;DHT22;4013;49.744;8.118;2023-04-16T01:57:59;8.10;99.90
7936;DHT22;4013;49.744;8.118;2023-04-16T02:00:26;8.10;99.90
7936;DHT22;4013;49.744;8.118;2023-04-16T02:02:53;8.10;99.90
7936;DHT22;4013;49.744;8.118;2023-04-16T02:05:20;8.00;99.90
7936;DHT22;4013;49.744;8.118;2023-04-16T02:07:47;8.00;99.90
7936;DHT22;4013;49.744;8.118;2023-04-16T02:10:14;8.00;99.90
7936;DHT22;4013;49.744;8.118;2023-04-16T02:12:42;8.00;99.90
7936;DHT22;4013;49.744;8.118;2023-04-16T02:15:10;8.00;99.90
7936;DHT22;4013;49.744;8.118;2023-04-16T02:17:37;8.10;99.90
7936;DHT22;4013;49.744;8.118;2023-04-16T02:20:04;8.10;99.90
7936;DHT22;4013;49.744;8.118;2023-04-16T02:22:32;8.10;99.90
7936;DHT22;4013;49.744;8.118;2023-04-16T02:24:59;8.10;99.90
7936;DHT22;4013;49.744;8.118;2023-04-16T02:27:26;8.10;99.90
7936;DHT22;4013;49.744;8.118;2023-04-16T02:29:55;8.10;99.90
7936;DHT22;4013;49.744;8.118;2023-04-16T02:32:22;8.10;99.90
7936;DHT22;4013;49.744;8.118;2023-04-16T02:34:48;8.10;99.90
7936;DHT22;4013;49.744;8.118;2023-04-16T02:37:15;8.10;99.90
7936;DHT22;4013;49.744;8.118;2023-04-16T02:39:42;8.10;99.90
7936;DHT22;4013;49.744;8.118;2023-04-16T02:42:09;8.00;99.90
7936;DHT22;4013;49.744;8.118;2023-04-16T02:44:36;8.00;99.90
7936;DHT22;4013;49.744;8.118;2023-04-16T02:47:04;8.10;99.90
7936;DHT22;4013;49.744;8.118;2023-04-16T02:49:31;8.00;99.90
7936;DHT22;4013;49.744;8.118;2023-04-16T02:52:00;8.00;99.90
7936;DHT22;4013;49.744;8.118;2023-04-16T02:54:27;8.00;99.90
7936;DHT22;4013;49.744;8.118;2023-04-16T02:56:54;8.00;99.90
7936;DHT22;4013;49.744;8.118;2023-04-16T02:59:21;8.00;99.90
7936;DHT22;4013;49.744;8.118;2023-04-16T03:01:48;7.90;99.90
7936;DHT22;4013;49.744;8.118;2023-04-16T03:04:16;7.90;99.90
7936;DHT22;4013;49.744;8.118;2023-04-16T03:06:43;7.90;99.90
7936;DHT22;4013;49.744;8.118;2023-04-16T03:09:10;7.90;99.90
7936;DHT22;4013;49.744;8.118;2023-04-16T03:11:37;8.00;99.90
7936;DHT22;4013;49.744;8.118;2023-04-16T03:14:04;8.00;99.90
7936;DHT22;4013;49.744;8.118;2023-04-16T03:16:31;8.00;99.90
7936;DHT22;4013;49.744;8.118;2023-04-16T03:18:58;8.00;99.90
7936;DHT22;4013;49.744;8.118;2023-04-16T03:21:26;8.00;99.90
7936;DHT22;4013;49.744;8.118;2023-04-16T03:23:53;8.00;99.90
7936;DHT22;4013;49.744;8.118;2023-04-16T03:26:20;8.00;99.90
7936;DHT22;4013;49.744;8.118;2023-04-16T03:28:47;8.00;99.90
7936;DHT22;4013;49.744;8.118;2023-04-16T03:31:14;8.00;99.90
7936;DHT22;4013;49.744;8.118;2023-04-16T03:33:41;8.00;99.90
7936;DHT22;4013;49.744;8.118;2023-04-16T03:36:08;8.00;99.90
7936;DHT22;4013;49.744;8.118;2023-04-16T03:38:37;8.10;99.90
7936;DHT22;4013;49.744;8.118;2023-04-16T03:41:04;8.10;99.90
7936;DHT22;4013;49.744;8.118;2023-04-16T03:43:31;8.10;99.90
7936;DHT22;4013;49.744;8.118;2023-04-16T03:45:57;8.10;99.90
7936;DHT22;4013;49.744;8.118;2023-04-16T03:48:24;8.20;99.90
7936;DHT22;4013;49.744;8.118;2023-04-16T03:50:51;8.20;99.90
7936;DHT22;4013;49.744;8.118;2023-04-16T03:53:18;8.20;99.90
7936;DHT22;4013;49.744;8.118;2023-04-16T03:55:48;8.20;99.90
7936;DHT22;4013;49.744;8.118;2023-04-16T03:58:16;8.20;99.90
7936;DHT22;4013;49.744;8.118;2023-04-16T04:00:43;8.10;99.90
7936;DHT22;4013;49.744;8.118;2023-04-16T04:03:10;8.10;99.90
7936;DHT22;4013;49.744;8.118;2023-04-16T04:05:38;8.10;99.90
7936;DHT22;4013;49.744;8.118;2023-04-16T04:08:06;8.10;99.90
7936;DHT22;4013;49.744;8.118;2023-04-16T04:10:33;8.20;99.90
7936;DHT22;4013;49.744;8.118;2023-04-16T04:13:03;8.20;99.90
7936;DHT22;4013;49.744;8.118;2023-04-16T04:15:30;8.20;99.90
7936;DHT22;4013;49.744;8.118;2023-04-16T04:17:57;8.20;99.90
7936;DHT22;4013;49.744;8.118;2023-04-16T04:20:24;8.30;99.90
7936;DHT22;4013;49.744;8.118;2023-04-16T04:22:51;8.40;99.90
7936;DHT22;4013;49.744;8.118;2023-04-16T04:25:18;8.40;99.90
7936;DHT22;4013;49.744;8.118;2023-04-16T04:27:45;8.50;99.90
7936;DHT22;4013;49.744;8.118;2023-04-16T04:30:13;8.50;99.90
7936;DHT22;4013;49.744;8.118;2023-04-16T04:32:40;8.40;99.90
7936;DHT22;4013;49.744;8.118;2023-04-16T04:35:08;8.40;99.90
7936;DHT22;4013;49.744;8.118;2023-04-16T04:37:35;8.40;99.90
7936;DHT22;4013;49.744;8.118;2023-04-16T04:40:02;8.30;99.90
7936;DHT22;4013;49.744;8.118;2023-04-16T04:42:29;8.30;99.90
7936;DHT22;4013;49.744;8.118;2023-04-16T04:44:56;8.30;99.90
7936;DHT22;4013;49.744;8.118;2023-04-16T04:47:24;8.30;99.90
7936;DHT22;4013;49.744;8.118;2023-04-16T04:49:51;8.30;99.90
7936;DHT22;4013;49.744;8.118;2023-04-16T04:52:18;8.20;99.90
7936;DHT22;4013;49.744;8.118;2023-04-16T04:54:46;8.20;99.90
7936;DHT22;4013;49.744;8.118;2023-04-16T04:57:13;8.20;99.90
7936;DHT22;4013;49.744;8.118;2023-04-16T04:59:40;8.20;99.90
7936;DHT22;4013;49.744;8.118;2023-04-16T05:02:06;8.20;99.90
7936;DHT22;4013;49.744;8.118;2023-04-16T05:04:35;8.20;99.90
7936;DHT22;4013;49.744;8.118;2023-04-16T05:07:02;8.30;99.90
7936;DHT22;4013;49.744;8.118;2023-04-16T05:09:29;8.30;99.90
7936;DHT22;4013;49.744;8.118;2023-04-16T05:11:56;8.20;99.90
7936;DHT22;4013;49.744;8.118;2023-04-16T05:14:23;8.20;99.90
7936;DHT22;4013;49.744;8.118;2023-04-16T05:16:50;8.30;99.90
7936;DHT22;4013;49.744;8.118;2023-04-16T05:19:17;8.30;99.90
7936;DHT22;4013;49.744;8.118;2023-04-16T05:21:45;8.30;99.90
7936;DHT22;4013;49.744;8.118;2023-04-16T05:24:12;8.30;99.90
7936;DHT22;4013;49.744;8.118;2023-04-16T05:26:39;8.30;99.90
7936;DHT22;4013;49.744;8.118;2023-04-16T05:29:06;8.30;99.90
7936;DHT22;4013;49.744;8.118;2023-04-16T05:31:33;8.30;99.90
7936;DHT22;4013;49.744;8.118;2023-04-16T05:34:00;8.30;99.90
7936;DHT22;4013;49.744;8.118;2023-04-16T05:36:27;8.30;99.90
7936;DHT22;4013;49.744;8.118;2023-04-16T05:38:55;8.30;99.90
7936;DHT22;4013;49.744;8.118;2023-04-16T05:41:22;8.30;99.90
7936;DHT22;4013;49.744;8.118;2023-04-16T05:43:49;8.20;99.90
7936;DHT22;4013;49.744;8.118;2023-04-16T05:46:16;8.20;99.90
7936;DHT22;4013;49.744;8.118;2023-04-16T05:48:43;8.30;99.90
7936;DHT22;4013;49.744;8.118;2023-04-16T05:51:10;8.20;99.90
7936;DHT22;4013;49.744;8.118;2023-04-16T05:53:37;8.20;99.90
7936;DHT22;4013;49.744;8.118;2023-04-16T05:56:06;8.20;99.90
7936;DHT22;4013;49.744;8.118;2023-04-16T05:58:33;8.20;99.90
7936;DHT22;4013;49.744;8.118;2023-04-16T06:01:00;8.30;99.90
7936;DHT22;4013;49.744;8.118;2023-04-16T06:03:27;8.30;99.90
7936;DHT22;4013;49.744;8.118;2023-04-16T06:05:54;8.20;99.90
7936;DHT22;4013;49.744;8.118;2023-04-16T06:08:21;8.20;99.90
7936;DHT22;4013;49.744;8.118;2023-04-16T06:10:48;8.20;99.90
7936;DHT22;4013;49.744;8.118;2023-04-16T06:13:17;8.20;99.90
7936;DHT22;4013;49.744;8.118;2023-04-16T06:15:44;8.20;99.90
7936;DHT22;4013;49.744;8.118;2023-04-16T06:18:11;8.20;99.90
7936;DHT22;4013;49.744;8.118;2023-04-16T06:20:38;8.20;99.90
7936;DHT22;4013;49.744;8.118;2023-04-16T06:23:05;8.20;99.90
7936;DHT22;4013;49.744;8.118;2023-04-16T06:25:32;8.20;99.90
7936;DHT22;4013;49.744;8.118;2023-04-16T06:27:59;8.20;99.90
7936;DHT22;4013;49.744;8.118;2023-04-16T06:30:28;8.20;99.90
7936;DHT22;4013;49.744;8.118;2023-04-16T06:32:55;8.20;99.90
7936;DHT22;4013;49.744;8.118;2023-04-16T06:35:22;8.20;99.90
7936;DHT22;4013;49.744;8.118;2023-04-16T06:37:48;8.20;99.90
7936;DHT22;4013;49.744;8.118;2023-04-16T06:40:15;8.20;99.90
7936;DHT22;4013;49.744;8.118;2023-04-16T06:42:42;8.30;99.90
7936;DHT22;4013;49.744;8.118;2023-04-16T06:45:11;8.20;99.90
7936;DHT22;4013;49.744;8.118;2023-04-16T06:47:39;8.30;99.90
7936;DHT22;4013;49.744;8.118;2023-04-16T06:50:07;8.30;99.90
7936;DHT22;4013;49.744;8.118;2023-04-16T06:52:34;8.40;99.90
7936;DHT22;4013;49.744;8.118;2023-04-16T06:55:01;8.30;99.90
7936;DHT22;4013;49.744;8.118;2023-04-16T06:57:28;8.30;99.90
7936;DHT22;4013;49.744;8.118;2023-04-16T06:59:55;8.40;99.90
7936;DHT22;4013;49.744;8.118;2023-04-16T07:02:23;8.40;99.90
7936;DHT22;4013;49.744;8.118;2023-04-16T07:04:51;8.40;99.90
7936;DHT22;4013;49.744;8.118;2023-04-16T07:07:18;8.40;99.90
7936;DHT22;4013;49.744;8.118;2023-04-16T07:09:45;8.50;99.90
7936;DHT22;4013;49.744;8.118;2023-04-16T07:12:12;8.50;99.90
7936;DHT22;4013;49.744;8.118;2023-04-16T07:14:39;8.50;99.90
7936;DHT22;4013;49.744;8.118;2023-04-16T07:17:06;8.60;99.90
7936;DHT22;4013;49.744;8.118;2023-04-16T07:19:33;8.60;99.90
7936;DHT22;4013;49.744;8.118;2023-04-16T07:22:02;8.60;99.90
7936;DHT22;4013;49.744;8.118;2023-04-16T07:24:29;8.60;99.90
7936;DHT22;4013;49.744;8.118;2023-04-16T07:26:56;8.60;99.90
7936;DHT22;4013;49.744;8.118;2023-04-16T07:29:23;8.60;99.90
7936;DHT22;4013;49.744;8.118;2023-04-16T07:31:50;8.60;99.90
7936;DHT22;4013;49.744;8.118;2023-04-16T07:34:18;8.50;99.90
7936;DHT22;4013;49.744;8.118;2023-04-16T07:36:44;8.60;99.90
7936;DHT22;4013;49.744;8.118;2023-04-16T07:39:13;8.60;99.90
7936;DHT22;4013;49.744;8.118;2023-04-16T07:41:40;8.60;99.90
7936;DHT22;4013;49.744;8.118;2023-04-16T07:44:07;8.60;99.90
7936;DHT22;4013;49.744;8.118;2023-04-16T07:46:34;8.70;99.90
7936;DHT22;4013;49.744;8.118;2023-04-16T07:49:01;8.70;99.90
7936;DHT22;4013;49.744;8.118;2023-04-16T07:51:27;8.70;99.90
7936;DHT22;4013;49.744;8.118;2023-04-16T07:53:54;8.80;99.90
7936;DHT22;4013;49.744;8.118;2023-04-16T07:56:23;8.70;99.90
7936;DHT22;4013;49.744;8.118;2023-04-16T07:58:50;8.80;99.90
7936;DHT22;4013;49.744;8.118;2023-04-16T08:01:17;8.90;99.90
7936;DHT22;4013;49.744;8.118;2023-04-16T08:03:44;8.90;99.90
7936;DHT22;4013;49.744;8.118;2023-04-16T08:06:11;8.80;99.90
7936;DHT22;4013;49.744;8.118;2023-04-16T08:08:38;8.80;99.90
7936;DHT22;4013;49.744;8.118;2023-04-16T08:11:05;8.80;99.90
7936;DHT22;4013;49.744;8.118;2023-04-16T08:13:33;8.70;99.90
7936;DHT22;4013;49.744;8.118;2023-04-16T08:16:00;8.60;99.90
7936;DHT22;4013;49.744;8.118;2023-04-16T08:18:27;8.60;99.90
7936;DHT22;4013;49.744;8.118;2023-04-16T08:20:54;8.50;99.90
7936;DHT22;4013;49.744;8.118;2023-04-16T08:23:21;8.50;99.90
7936;DHT22;4013;49.744;8.118;2023-04-16T08:25:48;8.50;99.90
7936;DHT22;4013;49.744;8.118;2023-04-16T08:28:15;8.40;99.90
7936;DHT22;4013;49.744;8.118;2023-04-16T08:30:43;8.40;99.90
7936;DHT22;4013;49.744;8.118;2023-04-16T08:33:11;8.40;99.90
7936;DHT22;4013;49.744;8.118;2023-04-16T08:35:38;8.40;99.90
7936;DHT22;4013;49.744;8.118;2023-04-16T08:38:05;8.40;99.90
7936;DHT22;4013;49.744;8.118;2023-04-16T08:40:37;8.40;99.90
7936;DHT22;4013;49.744;8.118;2023-04-16T08:43:08;8.50;99.90
7936;DHT22;4013;49.744;8.118;2023-04-16T08:45:37;8.50;99.90
7936;DHT22;4013;49.744;8.118;2023-04-16T08:48:06;8.50;99.90
7936;DHT22;4013;49.744;8.118;2023-04-16T08:50:33;8.50;99.90
7936;DHT22;4013;49.744;8.118;2023-04-16T08:53:03;8.50;99.90
7936;DHT22;4013;49.744;8.118;2023-04-16T08:55:35;8.50;99.90
7936;DHT22;4013;49.744;8.118;2023-04-16T08:58:07;8.50;99.90
7936;DHT22;4013;49.744;8.118;2023-04-16T09:00:36;8.60;99.90
7936;DHT22;4013;49.744;8.118;2023-04-16T09:03:07;8.50;99.90
7936;DHT22;4013;49.744;8.118;2023-04-16T09:05:35;8.50;99.90
7936;DHT22;4013;49.744;8.118;2023-04-16T09:08:04;8.40;99.90
7936;DHT22;4013;49.744;8.118;2023-04-16T09:10:31;8.40;99.90
7936;DHT22;4013;49.744;8.118;2023-04-16T09:12:58;8.50;99.90
7936;DHT22;4013;49.744;8.118;2023-04-16T09:15:26;8.40;99.90
7936;DHT22;4013;49.744;8.118;2023-04-16T09:17:54;8.40;99.90
7936;DHT22;4013;49.744;8.118;2023-04-16T09:20:23;8.50;99.90
7936;DHT22;4013;49.744;8.118;2023-04-16T09:22:50;8.50;99.90
7936;DHT22;4013;49.744;8.118;2023-04-16T09:25:19;8.50;99.90
7936;DHT22;4013;49.744;8.118;2023-04-16T09:27:49;8.50;99.90
7936;DHT22;4013;49.744;8.118;2023-04-16T09:30:21;8.50;99.90
7936;DHT22;4013;49.744;8.118;2023-04-16T09:32:48;8.60;99.90
7936;DHT22;4013;49.744;8.118;2023-04-16T09:35:17;8.60;99.90
7936;DHT22;4013;49.744;8.118;2023-04-16T09:37:54;8.60;99.90
7936;DHT22;4013;49.744;8.118;2023-04-16T09:40:24;8.60;99.90
7936;DHT22;4013;49.744;8.118;2023-04-16T09:42:51;8.60;99.90
7936;DHT22;4013;49.744;8.118;2023-04-16T09:45:22;8.60;99.90
7936;DHT22;4013;49.744;8.118;2023-04-16T09:47:49;8.60;99.90
7936;DHT22;4013;49.744;8.118;2023-04-16T09:50:17;8.50;99.90
7936;DHT22;4013;49.744;8.118;2023-04-16T09:52:48;8.50;99.90
7936;DHT22;4013;49.744;8.118;2023-04-16T09:55:15;8.60;99.90
7936;DHT22;4013;49.744;8.118;2023-04-16T09:57:43;8.60;99.90
7936;DHT22;4013;49.744;8.118;2023-04-16T10:00:12;8.60;99.90
7936;DHT22;4013;49.744;8.118;2023-04-16T10:02:39;8.60;99.90
7936;DHT22;4013;49.744;8.118;2023-04-16T10:05:07;8.60;99.90
7936;DHT22;4013;49.744;8.118;2023-04-16T10:07:36;8.70;99.90
7936;DHT22;4013;49.744;8.118;2023-04-16T10:10:05;8.70;99.90
7936;DHT22;4013;49.744;8.118;2023-04-16T10:12:32;8.70;99.90
7936;DHT22;4013;49.744;8.118;2023-04-16T10:15:00;8.70;99.90
7936;DHT22;4013;49.744;8.118;2023-04-16T10:17:27;8.70;99.90
7936;DHT22;4013;49.744;8.118;2023-04-16T10:19:57;8.70;99.90
7936;DHT22;4013;49.744;8.118;2023-04-16T10:22:25;8.70;99.90
7936;DHT22;4013;49.744;8.118;2023-04-16T10:24:52;8.70;99.90
7936;DHT22;4013;49.744;8.118;2023-04-16T10:27:21;8.80;99.90
7936;DHT22;4013;49.744;8.118;2023-04-16T10:29:49;8.80;99.90
7936;DHT22;4013;49.744;8.118;2023-04-16T10:32:17;8.80;99.90
7936;DHT22;4013;49.744;8.118;2023-04-16T10:34:46;8.80;99.90
7936;DHT22;4013;49.744;8.118;2023-04-16T10:37:15;8.80;99.90
7936;DHT22;4013;49.744;8.118;2023-04-16T10:39:43;8.90;99.90
7936;DHT22;4013;49.744;8.118;2023-04-16T10:42:11;8.90;99.90
7936;DHT22;4013;49.744;8.118;2023-04-16T10:44:40;8.90;99.90
7936;DHT22;4013;49.744;8.118;2023-04-16T10:47:12;8.90;99.90
7936;DHT22;4013;49.744;8.118;2023-04-16T10:49:39;9.00;99.90
7936;DHT22;4013;49.744;8.118;2023-04-16T10:52:09;9.10;99.90
7936;DHT22;4013;49.744;8.118;2023-04-16T10:54:37;9.10;99.90
7936;DHT22;4013;49.744;8.118;2023-04-16T10:57:08;9.20;99.90
7936;DHT22;4013;49.744;8.118;2023-04-16T10:59:37;9.10;99.90
7936;DHT22;4013;49.744;8.118;2023-04-16T11:02:08;9.10;99.90
7936;DHT22;4013;49.744;8.118;2023-04-16T11:04:37;9.20;99.90
7936;DHT22;4013;49.744;8.118;2023-04-16T11:07:15;9.20;99.90
7936;DHT22;4013;49.744;8.118;2023-04-16T11:09:49;9.20;99.90
7936;DHT22;4013;49.744;8.118;2023-04-16T11:12:18;9.30;99.90
7936;DHT22;4013;49.744;8.118;2023-04-16T11:14:47;9.30;99.90
7936;DHT22;4013;49.744;8.118;2023-04-16T11:17:16;9.30;99.90
7936;DHT22;4013;49.744;8.118;2023-04-16T11:19:43;9.40;99.90
7936;DHT22;4013;49.744;8.118;2023-04-16T11:22:12;9.30;99.90
7936;DHT22;4013;49.744;8.118;2023-04-16T11:24:39;9.40;99.90
7936;DHT22;4013;49.744;8.118;2023-04-16T11:27:06;9.40;99.90
7936;DHT22;4013;49.744;8.118;2023-04-16T11:29:34;9.40;99.90
7936;DHT22;4013;49.744;8.118;2023-04-16T11:32:01;9.50;99.90
7936;DHT22;4013;49.744;8.118;2023-04-16T11:34:29;9.50;99.90
7936;DHT22;4013;49.744;8.118;2023-04-16T11:36:57;9.60;99.90
7936;DHT22;4013;49.744;8.118;2023-04-16T11:39:24;9.70;99.90
7936;DHT22;4013;49.744;8.118;2023-04-16T11:41:51;9.80;99.90
7936;DHT22;4013;49.744;8.118;2023-04-16T11:44:19;9.90;99.90
7936;DHT22;4013;49.744;8.118;2023-04-16T11:46:47;10.00;99.90
7936;DHT22;4013;49.744;8.118;2023-04-16T11:49:14;10.00;99.90
7936;DHT22;4013;49.744;8.118;2023-04-16T11:51:44;10.00;99.90
7936;DHT22;4013;49.744;8.118;2023-04-16T11:54:18;10.10;99.90
7936;DHT22;4013;49.744;8.118;2023-04-16T11:56:46;10.10;99.90
7936;DHT22;4013;49.744;8.118;2023-04-16T11:59:15;10.20;99.90
7936;DHT22;4013;49.744;8.118;2023-04-16T12:01:45;10.20;99.90
7936;DHT22;4013;49.744;8.118;2023-04-16T12:04:13;10.20;99.90
7936;DHT22;4013;49.744;8.118;2023-04-16T12:07:07;10.20;99.90
7936;DHT22;4013;49.744;8.118;2023-04-16T12:09:36;10.10;99.90
7936;DHT22;4013;49.744;8.118;2023-04-16T12:12:03;10.10;99.90
7936;DHT22;4013;49.744;8.118;2023-04-16T12:14:31;10.20;99.90
7936;DHT22;4013;49.744;8.118;2023-04-16T12:17:16;10.10;99.90
7936;DHT22;4013;49.744;8.118;2023-04-16T12:19:50;10.00;99.90
7936;DHT22;4013;49.744;8.118;2023-04-16T12:22:27;10.00;99.90
7936;DHT22;4013;49.744;8.118;2023-04-16T12:24:57;10.00;99.90
7936;DHT22;4013;49.744;8.118;2023-04-16T12:27:24;10.00;99.90
7936;DHT22;4013;49.744;8.118;2023-04-16T12:30:03;9.90;99.90
7936;DHT22;4013;49.744;8.118;2023-04-16T12:32:31;9.90;99.90
7936;DHT22;4013;49.744;8.118;2023-04-16T12:34:58;10.00;99.90
7936;DHT22;4013;49.744;8.118;2023-04-16T12:37:27;10.00;99.90
7936;DHT22;4013;49.744;8.118;2023-04-16T12:39:54;10.00;99.90
7936;DHT22;4013;49.744;8.118;2023-04-16T12:42:21;10.10;99.90
7936;DHT22;4013;49.744;8.118;2023-04-16T12:44:48;10.00;99.90
7936;DHT22;4013;49.744;8.118;2023-04-16T12:47:15;10.00;99.90
7936;DHT22;4013;49.744;8.118;2023-04-16T12:49:41;10.10;99.90
7936;DHT22;4013;49.744;8.118;2023-04-16T12:52:09;10.10;99.90
7936;DHT22;4013;49.744;8.118;2023-04-16T12:54:37;10.10;99.90
7936;DHT22;4013;49.744;8.118;2023-04-16T12:57:04;10.00;99.90
7936;DHT22;4013;49.744;8.118;2023-04-16T12:59:31;10.10;99.90
7936;DHT22;4013;49.744;8.118;2023-04-16T13:02:00;10.10;99.90
7936;DHT22;4013;49.744;8.118;2023-04-16T13:04:27;10.10;99.90
7936;DHT22;4013;49.744;8.118;2023-04-16T13:06:54;10.10;99.90
7936;DHT22;4013;49.744;8.118;2023-04-16T13:09:21;10.10;99.90
7936;DHT22;4013;49.744;8.118;2023-04-16T13:11:50;10.10;99.90
7936;DHT22;4013;49.744;8.118;2023-04-16T13:14:19;10.10;99.90
7936;DHT22;4013;49.744;8.118;2023-04-16T13:16:46;10.10;99.90
7936;DHT22;4013;49.744;8.118;2023-04-16T13:19:13;10.20;99.90
7936;DHT22;4013;49.744;8.118;2023-04-16T13:21:40;10.20;99.90
7936;DHT22;4013;49.744;8.118;2023-04-16T13:24:07;10.20;99.90
7936;DHT22;4013;49.744;8.118;2023-04-16T13:26:34;10.30;99.90
7936;DHT22;4013;49.744;8.118;2023-04-16T13:29:02;10.30;99.90
7936;DHT22;4013;49.744;8.118;2023-04-16T13:31:29;10.50;99.90
7936;DHT22;4013;49.744;8.118;2023-04-16T13:33:56;10.50;99.90
7936;DHT22;4013;49.744;8.118;2023-04-16T13:36:23;10.60;99.90
7936;DHT22;4013;49.744;8.118;2023-04-16T13:38:52;10.70;99.90
7936;DHT22;4013;49.744;8.118;2023-04-16T13:41:19;10.90;99.90
7936;DHT22;4013;49.744;8.118;2023-04-16T13:43:46;10.90;99.90
7936;DHT22;4013;49.744;8.118;2023-04-16T13:46:14;11.00;99.90
7936;DHT22;4013;49.744;8.118;2023-04-16T13:48:41;11.10;99.90
7936;DHT22;4013;49.744;8.118;2023-04-16T13:51:08;11.30;99.90
7936;DHT22;4013;49.744;8.118;2023-04-16T13:53:35;11.40;99.90
7936;DHT22;4013;49.744;8.118;2023-04-16T13:56:02;11.50;99.90
7936;DHT22;4013;49.744;8.118;2023-04-16T13:58:29;11.50;99.90
7936;DHT22;4013;49.744;8.118;2023-04-16T14:00:56;11.50;99.90
7936;DHT22;4013;49.744;8.118;2023-04-16T14:03:25;11.60;99.90
7936;DHT22;4013;49.744;8.118;2023-04-16T14:05:52;11.70;99.90
7936;DHT22;4013;49.744;8.118;2023-04-16T14:08:19;11.60;99.90
7936;DHT22;4013;49.744;8.118;2023-04-16T14:10:47;11.60;99.90
7936;DHT22;4013;49.744;8.118;2023-04-16T14:13:14;11.50;99.90
7936;DHT22;4013;49.744;8.118;2023-04-16T14:15:41;11.50;99.90
7936;DHT22;4013;49.744;8.118;2023-04-16T14:18:08;11.50;99.90
7936;DHT22;4013;49.744;8.118;2023-04-16T14:20:37;11.50;99.90
7936;DHT22;4013;49.744;8.118;2023-04-16T14:23:04;11.40;99.90
7936;DHT22;4013;49.744;8.118;2023-04-16T14:25:32;11.40;99.90
7936;DHT22;4013;49.744;8.118;2023-04-16T14:27:59;11.40;99.90
7936;DHT22;4013;49.744;8.118;2023-04-16T14:30:26;11.50;99.90
7936;DHT22;4013;49.744;8.118;2023-04-16T14:32:53;11.50;99.90
7936;DHT22;4013;49.744;8.118;2023-04-16T14:35:20;11.60;99.90
7936;DHT22;4013;49.744;8.118;2023-04-16T14:37:49;11.60;99.90
7936;DHT22;4013;49.744;8.118;2023-04-16T14:40:16;11.60;99.90
7936;DHT22;4013;49.744;8.118;2023-04-16T14:42:43;11.70;99.90
7936;DHT22;4013;49.744;8.118;2023-04-16T14:45:10;12.00;99.90
7936;DHT22;4013;49.744;8.118;2023-04-16T14:47:37;12.20;99.90
7936;DHT22;4013;49.744;8.118;2023-04-16T14:50:10;12.20;99.90
7936;DHT22;4013;49.744;8.118;2023-04-16T14:52:37;12.20;99.90
7936;DHT22;4013;49.744;8.118;2023-04-16T14:55:06;12.10;99.90
7936;DHT22;4013;49.744;8.118;2023-04-16T14:57:34;12.20;99.90
7936;DHT22;4013;49.744;8.118;2023-04-16T15:00:01;12.10;99.90
7936;DHT22;4013;49.744;8.118;2023-04-16T15:02:33;12.20;99.90
7936;DHT22;4013;49.744;8.118;2023-04-16T15:05:00;12.20;99.90
7936;DHT22;4013;49.744;8.118;2023-04-16T15:07:27;12.30;99.90
7936;DHT22;4013;49.744;8.118;2023-04-16T15:09:54;12.40;99.90
7936;DHT22;4013;49.744;8.118;2023-04-16T15:12:22;12.40;99.90
7936;DHT22;4013;49.744;8.118;2023-04-16T15:14:51;12.50;99.90
7936;DHT22;4013;49.744;8.118;2023-04-16T15:17:18;12.40;99.90
7936;DHT22;4013;49.744;8.118;2023-04-16T15:19:46;12.40;99.90
7936;DHT22;4013;49.744;8.118;2023-04-16T15:22:13;12.30;99.90
7936;DHT22;4013;49.744;8.118;2023-04-16T15:24:40;12.30;99.90
7936;DHT22;4013;49.744;8.118;2023-04-16T15:27:07;12.30;99.90
7936;DHT22;4013;49.744;8.118;2023-04-16T15:29:35;12.40;99.90
7936;DHT22;4013;49.744;8.118;2023-04-16T15:32:02;12.40;99.90
7936;DHT22;4013;49.744;8.118;2023-04-16T15:34:31;12.40;99.90
7936;DHT22;4013;49.744;8.118;2023-04-16T15:36:58;12.40;99.90
7936;DHT22;4013;49.744;8.118;2023-04-16T15:39:25;12.30;99.90
7936;DHT22;4013;49.744;8.118;2023-04-16T15:41:55;12.30;99.90
7936;DHT22;4013;49.744;8.118;2023-04-16T15:44:22;12.20;99.90
7936;DHT22;4013;49.744;8.118;2023-04-16T15:46:50;12.20;99.90
7936;DHT22;4013;49.744;8.118;2023-04-16T15:49:17;12.20;99.90
7936;DHT22;4013;49.744;8.118;2023-04-16T15:51:44;12.30;99.90
7936;DHT22;4013;49.744;8.118;2023-04-16T15:54:11;12.20;99.90
7936;DHT22;4013;49.744;8.118;2023-04-16T15:56:38;12.30;99.90
7936;DHT22;4013;49.744;8.118;2023-04-16T15:59:05;12.30;99.90
7936;DHT22;4013;49.744;8.118;2023-04-16T16:01:32;12.30;99.90
7936;DHT22;4013;49.744;8.118;2023-04-16T16:04:00;12.40;99.90
7936;DHT22;4013;49.744;8.118;2023-04-16T16:06:27;12.40;99.90
7936;DHT22;4013;49.744;8.118;2023-04-16T16:08:54;12.40;99.90
7936;DHT22;4013;49.744;8.118;2023-04-16T16:11:21;12.50;99.90
7936;DHT22;4013;49.744;8.118;2023-04-16T16:13:48;12.50;99.90
7936;DHT22;4013;49.744;8.118;2023-04-16T16:16:15;12.50;99.90